createdAt,value
2018-08-23T00:01:00.971Z,24.02
2018-08-23T00:02:00.922Z,24.02
2018-08-23T00:03:53.745Z,24.04
2018-08-23T00:04:53.669Z,23.95
2018-08-23T00:06:46.461Z,23.97
2018-08-23T00:07:46.412Z,24.02
2018-08-23T00:09:39.237Z,23.92
2018-08-23T00:10:39.157Z,23.92
2018-08-23T00:12:31.948Z,23.94
2018-08-23T00:13:31.903Z,23.90
2018-08-23T00:15:24.729Z,23.92
2018-08-23T00:16:24.647Z,23.95
2018-08-23T00:18:17.437Z,23.89
2018-08-23T00:19:17.393Z,23.86
2018-08-23T00:21:10.213Z,23.94
2018-08-23T00:22:10.134Z,23.97
2018-08-23T00:24:02.929Z,23.95
2018-08-23T00:25:02.889Z,23.98
2018-08-23T00:26:55.744Z,23.92
2018-08-23T00:27:55.626Z,23.98
2018-08-23T00:29:48.418Z,23.94
2018-08-23T00:30:48.369Z,23.92
2018-08-23T00:32:41.193Z,23.94
2018-08-23T00:33:41.112Z,23.90
2018-08-23T00:35:33.904Z,23.97
2018-08-23T00:36:33.855Z,23.95
2018-08-23T00:38:26.682Z,23.98
2018-08-23T00:39:26.600Z,23.97
2018-08-23T00:41:19.389Z,23.92
2018-08-23T00:42:19.341Z,23.97
2018-08-23T00:44:12.162Z,23.95
2018-08-23T00:45:12.085Z,23.94
2018-08-23T00:47:04.876Z,23.95
2018-08-23T00:48:04.827Z,23.97
2018-08-23T00:49:57.649Z,24.00
2018-08-23T00:50:57.570Z,24.00
2018-08-23T00:52:50.365Z,23.97
2018-08-23T00:53:50.317Z,23.98
2018-08-23T00:55:43.139Z,24.00
2018-08-23T00:56:43.060Z,23.90
2018-08-23T00:58:35.855Z,23.98
2018-08-23T00:59:35.806Z,23.90
2018-08-23T01:01:28.628Z,23.92
2018-08-23T01:02:28.549Z,23.82
2018-08-23T01:04:21.342Z,23.95
2018-08-23T01:05:21.292Z,23.89
2018-08-23T01:07:14.114Z,23.82
2018-08-23T01:08:14.036Z,23.83
2018-08-23T01:10:06.825Z,23.85
2018-08-23T01:11:06.778Z,23.85
2018-08-23T01:12:59.599Z,23.83
2018-08-23T01:13:59.521Z,23.86
2018-08-23T01:15:52.311Z,23.89
2018-08-23T01:16:52.308Z,23.92
2018-08-23T01:18:45.082Z,23.90
2018-08-23T01:19:45.003Z,23.90
2018-08-23T01:21:37.794Z,23.89
2018-08-23T01:22:37.744Z,23.85
2018-08-23T01:24:30.569Z,23.85
2018-08-23T01:25:30.493Z,23.83
2018-08-23T01:27:23.280Z,23.87
2018-08-23T01:28:23.234Z,23.89
2018-08-23T01:30:16.053Z,23.83
2018-08-23T01:31:15.971Z,23.94
2018-08-23T01:33:08.763Z,23.86
2018-08-23T01:34:08.715Z,23.90
2018-08-23T01:36:01.538Z,23.87
2018-08-23T01:37:01.459Z,23.90
2018-08-23T01:38:54.252Z,23.95
2018-08-23T01:39:54.201Z,23.90
2018-08-23T01:41:47.021Z,23.85
2018-08-23T01:42:46.944Z,23.86
2018-08-23T01:44:39.737Z,23.85
2018-08-23T01:45:39.689Z,23.89
2018-08-23T01:47:32.512Z,23.92
2018-08-23T01:48:32.432Z,23.90
2018-08-23T01:50:25.225Z,23.87
2018-08-23T01:51:25.175Z,23.89
2018-08-23T01:53:18.015Z,23.82
2018-08-23T01:54:17.920Z,23.85
2018-08-23T01:56:10.710Z,23.83
2018-08-23T01:57:10.664Z,23.86
2018-08-23T01:59:03.481Z,23.86
2018-08-23T02:00:03.405Z,23.85
2018-08-23T02:01:56.196Z,23.82
2018-08-23T02:02:56.148Z,23.87
2018-08-23T02:04:48.972Z,23.89
2018-08-23T02:05:48.898Z,23.85
2018-08-23T02:07:41.688Z,23.77
2018-08-23T02:08:41.638Z,23.77
2018-08-23T02:10:34.461Z,23.77
2018-08-23T02:11:34.379Z,23.65
2018-08-23T02:13:27.171Z,23.62
2018-08-23T02:14:27.126Z,23.68
2018-08-23T02:16:19.945Z,23.76
2018-08-23T02:17:19.864Z,23.71
2018-08-23T02:19:12.657Z,23.76
2018-08-23T02:20:12.609Z,23.75
2018-08-23T02:22:05.429Z,23.68
2018-08-23T02:23:05.351Z,23.68
2018-08-23T02:24:58.143Z,23.71
2018-08-23T02:25:58.096Z,23.62
2018-08-23T02:27:50.915Z,23.61
2018-08-23T02:28:50.837Z,23.62
2018-08-23T02:30:43.628Z,23.64
2018-08-23T02:31:43.579Z,23.65
2018-08-23T02:33:36.403Z,23.61
2018-08-23T02:34:36.325Z,23.65
2018-08-23T02:36:29.120Z,23.65
2018-08-23T02:37:29.085Z,23.60
2018-08-23T02:39:21.892Z,23.64
2018-08-23T02:40:21.814Z,23.61
2018-08-23T02:42:14.604Z,23.49
2018-08-23T02:43:14.557Z,23.52
2018-08-23T02:45:07.378Z,23.52
2018-08-23T02:46:07.299Z,23.52
2018-08-23T02:48:00.090Z,23.55
2018-08-23T02:49:00.042Z,23.55
2018-08-23T02:50:52.870Z,23.55
2018-08-23T02:51:52.795Z,23.58
2018-08-23T02:53:45.581Z,23.64
2018-08-23T02:54:45.532Z,23.58
2018-08-23T02:56:38.354Z,23.64
2018-08-23T02:57:38.275Z,23.58
2018-08-23T02:59:31.071Z,23.65
2018-08-23T03:00:31.052Z,23.67
2018-08-23T03:02:23.877Z,23.62
2018-08-23T03:03:23.760Z,23.62
2018-08-23T03:05:16.551Z,23.64
2018-08-23T03:06:16.509Z,23.62
2018-08-23T03:08:09.336Z,23.62
2018-08-23T03:09:09.243Z,23.58
2018-08-23T03:11:02.037Z,23.60
2018-08-23T03:12:01.984Z,23.58
2018-08-23T03:13:54.809Z,23.58
2018-08-23T03:14:54.724Z,23.58
2018-08-23T03:16:47.515Z,23.53
2018-08-23T03:17:47.464Z,23.57
2018-08-23T03:19:40.286Z,23.52
2018-08-23T03:20:40.204Z,23.50
2018-08-23T03:22:32.993Z,23.55
2018-08-23T03:23:32.945Z,23.55
2018-08-23T03:25:25.767Z,23.55
2018-08-23T03:26:25.688Z,23.53
2018-08-23T03:28:18.482Z,23.50
2018-08-23T03:29:18.432Z,23.61
2018-08-23T03:31:11.252Z,23.52
2018-08-23T03:32:11.172Z,23.58
2018-08-23T03:34:03.962Z,23.57
2018-08-23T03:35:03.915Z,23.55
2018-08-23T03:36:56.735Z,23.53
2018-08-23T03:37:56.656Z,23.58
2018-08-23T03:39:49.447Z,23.57
2018-08-23T03:40:49.398Z,23.57
2018-08-23T03:42:42.219Z,23.52
2018-08-23T03:43:42.140Z,23.49
2018-08-23T03:45:34.930Z,23.52
2018-08-23T03:46:34.883Z,23.50
2018-08-23T03:48:27.704Z,23.46
2018-08-23T03:49:27.627Z,23.40
2018-08-23T03:51:20.419Z,23.39
2018-08-23T03:52:20.419Z,23.39
2018-08-23T03:54:13.191Z,23.31
2018-08-23T03:55:13.115Z,23.32
2018-08-23T03:57:05.903Z,23.39
2018-08-23T03:58:05.856Z,23.35
2018-08-23T03:59:58.678Z,23.40
2018-08-23T04:00:58.595Z,23.34
2018-08-23T04:02:51.386Z,23.31
2018-08-23T04:03:51.339Z,23.31
2018-08-23T04:05:44.154Z,23.38
2018-08-23T04:06:44.076Z,23.32
2018-08-23T04:08:36.870Z,23.34
2018-08-23T04:09:36.819Z,23.32
2018-08-23T04:11:29.641Z,23.29
2018-08-23T04:12:29.564Z,23.35
2018-08-23T04:14:22.356Z,23.34
2018-08-23T04:15:22.370Z,23.29
2018-08-23T04:17:15.129Z,23.34
2018-08-23T04:18:15.053Z,23.32
2018-08-23T04:20:07.840Z,23.26
2018-08-23T04:21:07.792Z,23.38
2018-08-23T04:23:00.691Z,23.35
2018-08-23T04:24:00.534Z,23.29
2018-08-23T04:25:53.326Z,23.31
2018-08-23T04:26:53.278Z,23.27
2018-08-23T04:28:46.103Z,23.32
2018-08-23T04:29:46.020Z,23.26
2018-08-23T04:31:38.815Z,23.35
2018-08-23T04:32:38.761Z,23.26
2018-08-23T04:34:31.584Z,23.29
2018-08-23T04:35:31.505Z,23.19
2018-08-23T04:37:24.295Z,23.24
2018-08-23T04:38:24.251Z,23.17
2018-08-23T04:40:17.079Z,23.22
2018-08-23T04:41:16.997Z,23.15
2018-08-23T04:43:09.835Z,23.14
2018-08-23T04:44:09.729Z,23.12
2018-08-23T04:46:02.552Z,23.09
2018-08-23T04:47:02.474Z,23.11
2018-08-23T04:48:55.262Z,23.19
2018-08-23T04:49:55.213Z,23.08
2018-08-23T04:51:48.074Z,23.11
2018-08-23T04:52:47.953Z,23.11
2018-08-23T04:54:40.745Z,23.23
2018-08-23T04:55:40.696Z,23.17
2018-08-23T04:57:33.522Z,23.12
2018-08-23T04:58:33.440Z,23.09
2018-08-23T05:00:26.228Z,23.11
2018-08-23T05:01:26.182Z,23.20
2018-08-23T05:03:19.010Z,23.12
2018-08-23T05:04:18.919Z,23.15
2018-08-23T05:06:11.712Z,23.11
2018-08-23T05:07:11.664Z,23.19
2018-08-23T05:09:04.499Z,23.19
2018-08-23T05:10:04.411Z,23.15
2018-08-23T05:11:57.199Z,23.27
2018-08-23T05:12:57.150Z,23.24
2018-08-23T05:14:49.970Z,23.27
2018-08-23T05:15:49.894Z,23.27
2018-08-23T05:17:42.691Z,23.22
2018-08-23T05:18:42.639Z,23.22
2018-08-23T05:20:35.476Z,23.20
2018-08-23T05:21:35.382Z,23.29
2018-08-23T05:23:28.171Z,23.24
2018-08-23T05:24:28.122Z,23.23
2018-08-23T05:26:20.948Z,23.22
2018-08-23T05:27:20.863Z,23.35
2018-08-23T05:29:13.652Z,23.38
2018-08-23T05:30:13.606Z,23.35
2018-08-23T05:32:06.428Z,23.39
2018-08-23T05:33:06.348Z,23.38
2018-08-23T05:34:59.141Z,23.35
2018-08-23T05:35:59.095Z,23.24
2018-08-23T05:37:51.916Z,23.39
2018-08-23T05:38:51.837Z,23.39
2018-08-23T05:40:44.625Z,23.35
2018-08-23T05:41:44.575Z,23.38
2018-08-23T05:43:37.408Z,23.39
2018-08-23T05:44:37.318Z,23.35
2018-08-23T05:46:30.106Z,23.38
2018-08-23T05:47:30.096Z,23.38
2018-08-23T05:49:22.876Z,23.39
2018-08-23T05:50:22.796Z,23.35
2018-08-23T05:52:15.587Z,23.31
2018-08-23T05:53:15.536Z,23.35
2018-08-23T05:55:08.357Z,23.42
2018-08-23T05:56:08.278Z,23.42
2018-08-23T05:58:01.070Z,23.42
2018-08-23T05:59:01.018Z,23.40
2018-08-23T06:00:53.854Z,23.43
2018-08-23T06:01:53.760Z,23.34
2018-08-23T06:03:46.552Z,23.40
2018-08-23T06:04:46.503Z,23.55
2018-08-23T06:06:39.323Z,23.45
2018-08-23T06:07:39.248Z,23.40
2018-08-23T06:09:32.038Z,23.42
2018-08-23T06:10:31.989Z,23.46
2018-08-23T06:12:24.810Z,23.50
2018-08-23T06:13:24.732Z,23.53
2018-08-23T06:15:17.522Z,23.52
2018-08-23T06:16:17.473Z,23.55
2018-08-23T06:18:10.302Z,23.53
2018-08-23T06:19:10.223Z,23.57
2018-08-23T06:21:03.013Z,23.55
2018-08-23T06:22:02.963Z,23.53
2018-08-23T06:23:55.784Z,23.58
2018-08-23T06:24:55.707Z,23.57
2018-08-23T06:26:48.497Z,23.58
2018-08-23T06:27:48.451Z,23.60
2018-08-23T06:29:41.283Z,23.64
2018-08-23T06:30:41.190Z,23.64
2018-08-23T06:32:33.981Z,23.64
2018-08-23T06:33:34.084Z,23.64
2018-08-23T06:35:26.783Z,23.58
2018-08-23T06:36:26.676Z,23.62
2018-08-23T06:38:19.465Z,23.62
2018-08-23T06:39:19.417Z,23.61
2018-08-23T06:41:12.252Z,23.64
2018-08-23T06:42:12.163Z,23.64
2018-08-23T06:44:04.952Z,23.71
2018-08-23T06:45:04.904Z,23.68
2018-08-23T06:46:57.737Z,23.57
2018-08-23T06:47:57.648Z,23.58
2018-08-23T06:49:50.441Z,23.61
2018-08-23T06:50:50.392Z,23.60
2018-08-23T06:52:43.215Z,23.61
2018-08-23T06:53:43.135Z,23.62
2018-08-23T06:55:35.928Z,23.67
2018-08-23T06:56:35.880Z,23.62
2018-08-23T06:58:28.701Z,23.62
2018-08-23T06:59:28.623Z,23.64
2018-08-23T07:01:21.414Z,23.60
2018-08-23T07:02:21.364Z,23.65
2018-08-23T07:04:14.200Z,23.64
2018-08-23T07:05:14.109Z,23.67
2018-08-23T07:07:06.899Z,23.64
2018-08-23T07:08:06.858Z,23.64
2018-08-23T07:09:59.687Z,23.65
2018-08-23T07:10:59.593Z,23.62
2018-08-23T07:12:52.384Z,23.64
2018-08-23T07:13:52.335Z,23.70
2018-08-23T07:15:45.159Z,23.68
2018-08-23T07:16:45.074Z,23.58
2018-08-23T07:18:37.866Z,23.76
2018-08-23T07:19:37.821Z,23.68
2018-08-23T07:21:30.649Z,23.68
2018-08-23T07:22:30.592Z,23.64
2018-08-23T07:24:23.353Z,23.71
2018-08-23T07:25:23.308Z,23.61
2018-08-23T07:27:16.139Z,23.64
2018-08-23T07:28:16.048Z,23.68
2018-08-23T07:30:08.842Z,23.64
2018-08-23T07:31:08.791Z,23.64
2018-08-23T07:33:01.746Z,23.64
2018-08-23T07:34:01.534Z,23.62
2018-08-23T07:35:54.369Z,23.64
2018-08-23T07:36:54.277Z,23.70
2018-08-23T07:38:47.100Z,23.75
2018-08-23T07:39:47.047Z,23.68
2018-08-23T07:41:39.811Z,23.71
2018-08-23T07:42:39.763Z,23.70
2018-08-23T07:44:32.607Z,23.64
2018-08-23T07:45:32.528Z,23.75
2018-08-23T07:47:25.437Z,23.70
2018-08-23T07:48:25.277Z,23.71
2018-08-23T07:50:18.089Z,23.70
2018-08-23T07:51:18.027Z,23.65
2018-08-23T07:53:10.899Z,23.68
2018-08-23T07:54:10.766Z,23.72
2018-08-23T07:56:03.641Z,23.71
2018-08-23T07:57:03.494Z,23.76
2018-08-23T07:58:56.282Z,23.75
2018-08-23T07:59:56.236Z,23.65
2018-08-23T08:01:49.070Z,23.75
2018-08-23T08:02:48.978Z,23.72
2018-08-23T08:04:41.773Z,23.71
2018-08-23T08:05:41.723Z,23.77
2018-08-23T08:07:34.555Z,23.82
2018-08-23T08:08:34.464Z,23.70
2018-08-23T08:10:27.253Z,23.72
2018-08-23T08:11:27.207Z,23.68
2018-08-23T08:13:20.111Z,23.71
2018-08-23T08:14:20.030Z,23.72
2018-08-23T08:16:12.821Z,23.80
2018-08-23T08:17:12.773Z,23.68
2018-08-23T08:19:05.647Z,23.82
2018-08-23T08:20:05.517Z,23.67
2018-08-23T08:21:58.306Z,23.76
2018-08-23T08:22:58.258Z,23.80
2018-08-23T08:24:51.094Z,23.80
2018-08-23T08:25:51.001Z,23.79
2018-08-23T08:27:43.790Z,23.72
2018-08-23T08:28:43.742Z,23.82
2018-08-23T08:30:36.562Z,23.75
2018-08-23T08:31:36.485Z,23.72
2018-08-23T08:33:29.277Z,23.77
2018-08-23T08:34:29.228Z,23.85
2018-08-23T08:36:22.047Z,23.76
2018-08-23T08:37:21.969Z,23.82
2018-08-23T08:39:14.761Z,23.79
2018-08-23T08:40:14.713Z,23.79
2018-08-23T08:42:07.537Z,23.80
2018-08-23T08:43:07.456Z,23.80
2018-08-23T08:45:00.247Z,23.70
2018-08-23T08:46:00.202Z,23.80
2018-08-23T08:47:53.033Z,23.82
2018-08-23T08:48:52.947Z,23.79
2018-08-23T08:50:45.731Z,23.75
2018-08-23T08:51:45.686Z,23.85
2018-08-23T08:53:38.506Z,23.76
2018-08-23T08:54:38.428Z,23.83
2018-08-23T08:56:31.219Z,23.79
2018-08-23T08:57:31.172Z,23.85
2018-08-23T08:59:23.993Z,23.87
2018-08-23T09:00:23.918Z,23.76
2018-08-23T09:02:16.705Z,23.83
2018-08-23T09:03:16.727Z,23.77
2018-08-23T09:05:09.474Z,23.82
2018-08-23T09:06:09.396Z,23.82
2018-08-23T09:08:02.189Z,23.80
2018-08-23T09:09:02.140Z,23.82
2018-08-23T09:10:54.974Z,23.89
2018-08-23T09:11:54.880Z,23.83
2018-08-23T09:13:47.673Z,23.87
2018-08-23T09:14:47.625Z,23.76
2018-08-23T09:16:40.447Z,23.77
2018-08-23T09:17:40.370Z,23.82
2018-08-23T09:19:33.160Z,23.89
2018-08-23T09:20:33.155Z,23.87
2018-08-23T09:22:25.946Z,23.90
2018-08-23T09:23:25.856Z,23.79
2018-08-23T09:25:18.738Z,23.85
2018-08-23T09:26:18.597Z,23.80
2018-08-23T09:28:11.416Z,23.85
2018-08-23T09:29:11.341Z,23.82
2018-08-23T09:31:04.130Z,23.83
2018-08-23T09:32:04.105Z,23.83
2018-08-23T09:33:56.916Z,23.79
2018-08-23T09:34:56.848Z,23.80
2018-08-23T09:36:49.608Z,23.85
2018-08-23T09:37:49.608Z,23.82
2018-08-23T09:39:42.383Z,23.86
2018-08-23T09:40:42.306Z,23.86
2018-08-23T09:42:35.215Z,23.92
2018-08-23T09:43:35.050Z,23.85
2018-08-23T09:45:27.872Z,23.77
2018-08-23T09:46:27.792Z,23.85
2018-08-23T09:48:20.583Z,23.86
2018-08-23T09:49:20.534Z,23.86
2018-08-23T09:51:13.423Z,23.83
2018-08-23T09:52:13.285Z,23.85
2018-08-23T09:54:06.070Z,23.83
2018-08-23T09:55:06.021Z,23.79
2018-08-23T09:56:58.856Z,23.85
2018-08-23T09:57:58.761Z,23.85
2018-08-23T09:59:51.553Z,23.86
2018-08-23T10:00:51.506Z,23.80
2018-08-23T10:02:44.343Z,23.77
2018-08-23T10:03:44.256Z,23.87
2018-08-23T10:05:37.042Z,23.87
2018-08-23T10:06:36.999Z,23.90
2018-08-23T10:08:29.818Z,23.82
2018-08-23T10:09:29.735Z,23.85
2018-08-23T10:11:22.582Z,23.83
2018-08-23T10:12:22.479Z,23.83
2018-08-23T10:14:15.424Z,23.85
2018-08-23T10:15:15.224Z,23.86
2018-08-23T10:17:08.013Z,23.83
2018-08-23T10:18:07.964Z,23.87
2018-08-23T10:20:00.799Z,23.87
2018-08-23T10:21:00.709Z,23.92
2018-08-23T10:22:53.500Z,23.89
2018-08-23T10:23:53.518Z,23.82
2018-08-23T10:25:46.286Z,23.89
2018-08-23T10:26:46.193Z,23.80
2018-08-23T10:28:38.981Z,23.85
2018-08-23T10:29:38.933Z,23.85
2018-08-23T10:31:31.764Z,23.86
2018-08-23T10:32:31.675Z,23.89
2018-08-23T10:34:24.467Z,23.90
2018-08-23T10:35:24.419Z,23.89
2018-08-23T10:37:17.256Z,23.87
2018-08-23T10:38:18.958Z,23.97
2018-08-23T10:40:10.966Z,23.85
2018-08-23T10:41:10.908Z,23.89
2018-08-23T10:43:03.741Z,23.95
2018-08-23T10:44:03.650Z,23.95
2018-08-23T10:45:56.441Z,23.94
2018-08-23T10:46:56.395Z,23.90
2018-08-23T10:48:49.228Z,23.92
2018-08-23T10:49:49.137Z,23.92
2018-08-23T10:51:41.928Z,23.92
2018-08-23T10:52:41.879Z,23.97
2018-08-23T10:54:34.717Z,23.98
2018-08-23T10:55:34.624Z,23.89
2018-08-23T10:57:27.421Z,23.89
2018-08-23T10:58:27.365Z,23.97
2018-08-23T11:00:20.189Z,23.97
2018-08-23T11:01:20.110Z,23.94
2018-08-23T11:03:12.904Z,23.92
2018-08-23T11:04:12.859Z,23.90
2018-08-23T11:06:05.678Z,23.97
2018-08-23T11:07:05.600Z,23.98
2018-08-23T11:08:58.390Z,23.95
2018-08-23T11:09:58.344Z,23.90
2018-08-23T11:11:51.169Z,23.89
2018-08-23T11:12:51.088Z,23.86
2018-08-23T11:14:43.881Z,23.94
2018-08-23T11:15:43.832Z,23.94
2018-08-23T11:17:36.667Z,23.90
2018-08-23T11:18:36.574Z,23.95
2018-08-23T11:20:29.369Z,23.98
2018-08-23T11:21:29.317Z,23.92
2018-08-23T11:23:22.153Z,23.94
2018-08-23T11:24:22.061Z,23.92
2018-08-23T11:26:14.851Z,23.98
2018-08-23T11:27:14.802Z,24.01
2018-08-23T11:29:07.636Z,24.01
2018-08-23T11:30:07.544Z,24.01
2018-08-23T11:32:00.336Z,24.01
2018-08-23T11:33:00.288Z,23.97
2018-08-23T11:34:53.121Z,23.95
2018-08-23T11:35:53.032Z,24.00
2018-08-23T11:37:45.824Z,24.00
2018-08-23T11:38:45.776Z,23.90
2018-08-23T11:40:38.611Z,23.97
2018-08-23T11:41:38.517Z,24.02
2018-08-23T11:43:31.311Z,23.90
2018-08-23T11:44:31.262Z,23.92
2018-08-23T11:46:24.101Z,24.00
2018-08-23T11:47:24.005Z,24.00
2018-08-23T11:49:16.801Z,23.95
2018-08-23T11:50:16.753Z,24.00
2018-08-23T11:52:09.585Z,23.97
2018-08-23T11:53:09.577Z,24.01
2018-08-23T11:55:02.295Z,23.95
2018-08-23T11:56:02.243Z,23.95
2018-08-23T11:57:55.073Z,23.98
2018-08-23T11:58:54.985Z,24.02
2018-08-23T12:00:47.777Z,23.98
2018-08-23T12:01:47.725Z,23.98
2018-08-23T12:03:40.552Z,24.04
2018-08-23T12:04:40.470Z,23.95
2018-08-23T12:06:33.311Z,24.01
2018-08-23T12:07:33.213Z,24.00
2018-08-23T12:09:26.050Z,24.01
2018-08-23T12:10:25.958Z,24.05
2018-08-23T12:12:18.751Z,24.10
2018-08-23T12:13:18.701Z,23.94
2018-08-23T12:15:11.535Z,24.02
2018-08-23T12:16:11.444Z,23.97
2018-08-23T12:18:04.234Z,23.97
2018-08-23T12:19:04.186Z,24.10
2018-08-23T12:20:57.008Z,24.04
2018-08-23T12:21:56.934Z,24.12
2018-08-23T12:23:49.720Z,24.04
2018-08-23T12:24:49.672Z,24.05
2018-08-23T12:26:42.553Z,24.05
2018-08-23T12:27:42.415Z,24.07
2018-08-23T12:29:35.202Z,24.07
2018-08-23T12:30:35.154Z,24.02
2018-08-23T12:32:27.987Z,24.01
2018-08-23T12:33:27.895Z,24.07
2018-08-23T12:35:20.687Z,24.04
2018-08-23T12:36:20.635Z,24.01
2018-08-23T12:38:13.470Z,24.02
2018-08-23T12:39:13.384Z,24.05
2018-08-23T12:41:06.260Z,24.02
2018-08-23T12:42:06.122Z,24.04
2018-08-23T12:43:58.952Z,24.08
2018-08-23T12:44:58.870Z,24.08
2018-08-23T12:46:51.659Z,24.13
2018-08-23T12:47:51.613Z,24.07
2018-08-23T12:49:44.544Z,24.07
2018-08-23T12:50:44.356Z,24.16
2018-08-23T12:52:37.160Z,24.05
2018-08-23T12:53:37.099Z,24.08
2018-08-23T12:55:30.000Z,24.10
2018-08-23T12:56:29.960Z,24.07
2018-08-23T12:58:22.733Z,24.07
2018-08-23T12:59:22.684Z,24.07
2018-08-23T13:01:15.507Z,24.07
2018-08-23T13:02:15.510Z,24.13
2018-08-23T13:04:08.360Z,24.07
2018-08-23T13:05:08.207Z,24.02
2018-08-23T13:07:01.058Z,24.07
2018-08-23T13:08:01.091Z,24.04
2018-08-23T13:09:53.705Z,24.05
2018-08-23T13:10:53.658Z,24.05
2018-08-23T13:12:46.477Z,24.10
2018-08-23T13:13:46.396Z,24.10
2018-08-23T13:15:39.188Z,24.02
2018-08-23T13:16:39.140Z,24.08
2018-08-23T13:18:31.974Z,24.07
2018-08-23T13:19:31.881Z,24.07
2018-08-23T13:21:24.673Z,24.04
2018-08-23T13:22:24.625Z,24.12
2018-08-23T13:24:17.460Z,24.17
2018-08-23T13:25:17.375Z,24.10
2018-08-23T13:27:10.160Z,24.13
2018-08-23T13:28:10.114Z,24.07
2018-08-23T13:30:03.066Z,24.08
2018-08-23T13:31:02.887Z,24.08
2018-08-23T13:32:55.678Z,24.13
2018-08-23T13:33:55.629Z,24.08
2018-08-23T13:35:48.622Z,24.17
2018-08-23T13:36:48.668Z,24.07
2018-08-23T13:38:42.218Z,24.05
2018-08-23T13:39:41.200Z,24.20
2018-08-23T13:41:34.034Z,24.22
2018-08-23T13:42:33.990Z,24.10
2018-08-23T13:44:26.734Z,24.19
2018-08-23T13:45:26.685Z,24.19
2018-08-23T13:47:19.526Z,24.05
2018-08-23T13:48:19.451Z,24.12
2018-08-23T13:50:12.226Z,24.20
2018-08-23T13:51:12.179Z,24.17
2018-08-23T13:53:05.004Z,24.19
2018-08-23T13:54:04.925Z,24.12
2018-08-23T13:55:57.759Z,24.22
2018-08-23T13:56:57.715Z,24.16
2018-08-23T13:58:50.493Z,24.14
2018-08-23T13:59:50.427Z,24.17
2018-08-23T14:01:43.207Z,24.16
2018-08-23T14:02:43.231Z,24.14
2018-08-23T14:04:35.981Z,24.10
2018-08-23T14:05:35.901Z,24.17
2018-08-23T14:07:28.732Z,24.17
2018-08-23T14:08:28.644Z,24.04
2018-08-23T14:10:21.480Z,24.17
2018-08-23T14:11:21.388Z,24.08
2018-08-23T14:13:14.179Z,24.22
2018-08-23T14:14:14.131Z,24.08
2018-08-23T14:16:06.952Z,24.10
2018-08-23T14:17:06.873Z,24.16
2018-08-23T14:18:59.667Z,24.17
2018-08-23T14:19:59.619Z,24.14
2018-08-23T14:21:52.600Z,24.19
2018-08-23T14:22:52.520Z,24.14
2018-08-23T14:24:45.310Z,24.22
2018-08-23T14:25:45.263Z,24.12
2018-08-23T14:27:38.099Z,24.23
2018-08-23T14:28:38.008Z,24.10
2018-08-23T14:30:30.797Z,24.24
2018-08-23T14:31:30.749Z,24.14
2018-08-23T14:33:23.585Z,24.23
2018-08-23T14:34:23.493Z,24.14
2018-08-23T14:36:16.286Z,24.17
2018-08-23T14:37:16.238Z,24.17
2018-08-23T14:39:09.074Z,24.20
2018-08-23T14:40:09.066Z,24.17
2018-08-23T14:42:01.773Z,24.16
2018-08-23T14:43:01.723Z,24.17
2018-08-23T14:44:54.560Z,24.19
2018-08-23T14:45:54.468Z,24.22
2018-08-23T14:47:47.261Z,24.22
2018-08-23T14:48:47.232Z,24.20
2018-08-23T14:50:40.035Z,24.26
2018-08-23T14:51:39.954Z,24.22
2018-08-23T14:53:32.745Z,24.24
2018-08-23T14:54:32.702Z,24.26
2018-08-23T14:56:25.526Z,24.26
2018-08-23T14:57:25.440Z,24.22
2018-08-23T14:59:18.231Z,24.23
2018-08-23T15:00:18.184Z,24.22
2018-08-23T15:02:11.070Z,24.20
2018-08-23T15:03:11.038Z,24.27
2018-08-23T15:05:03.782Z,24.24
2018-08-23T15:06:03.735Z,24.23
2018-08-23T15:07:56.556Z,24.23
2018-08-23T15:08:56.477Z,24.26
2018-08-23T15:10:49.267Z,24.24
2018-08-23T15:11:49.220Z,24.23
2018-08-23T15:13:42.045Z,24.23
2018-08-23T15:14:42.085Z,24.12
2018-08-23T15:16:34.771Z,24.23
2018-08-23T15:17:34.717Z,24.17
2018-08-23T15:19:27.552Z,24.22
2018-08-23T15:20:27.462Z,24.32
2018-08-23T15:22:20.254Z,24.23
2018-08-23T15:23:20.205Z,24.23
2018-08-23T15:25:13.027Z,24.24
2018-08-23T15:26:12.998Z,24.24
2018-08-23T15:28:05.742Z,24.29
2018-08-23T15:29:05.693Z,24.23
2018-08-23T15:30:58.521Z,24.32
2018-08-23T15:31:58.435Z,24.22
2018-08-23T15:33:51.342Z,24.24
2018-08-23T15:34:51.178Z,24.24
2018-08-23T15:36:44.001Z,24.26
2018-08-23T15:37:43.922Z,24.23
2018-08-23T15:39:36.806Z,24.23
2018-08-23T15:40:36.667Z,24.23
2018-08-23T15:42:29.489Z,24.29
2018-08-23T15:43:29.411Z,24.29
2018-08-23T15:45:22.200Z,24.24
2018-08-23T15:46:22.152Z,24.24
2018-08-23T15:48:14.972Z,24.26
2018-08-23T15:49:14.915Z,24.26
2018-08-23T15:51:07.685Z,24.22
2018-08-23T15:52:07.638Z,24.31
2018-08-23T15:54:00.474Z,24.27
2018-08-23T15:55:00.482Z,24.26
2018-08-23T15:56:53.176Z,24.27
2018-08-23T15:57:53.128Z,24.26
2018-08-23T15:59:45.948Z,24.23
2018-08-23T16:00:45.871Z,24.26
2018-08-23T16:02:38.662Z,24.31
2018-08-23T16:03:38.613Z,24.29
2018-08-23T16:05:31.451Z,24.29
2018-08-23T16:06:31.358Z,24.27
2018-08-23T16:08:24.760Z,24.27
2018-08-23T16:09:24.713Z,24.27
2018-08-23T16:11:17.543Z,24.26
2018-08-23T16:12:17.458Z,24.27
2018-08-23T16:14:10.252Z,24.26
2018-08-23T16:15:10.202Z,24.31
2018-08-23T16:17:03.026Z,24.31
2018-08-23T16:18:02.945Z,24.29
2018-08-23T16:19:55.737Z,24.37
2018-08-23T16:20:55.693Z,24.26
2018-08-23T16:22:48.556Z,24.29
2018-08-23T16:23:48.442Z,24.37
2018-08-23T16:25:41.230Z,24.32
2018-08-23T16:26:41.181Z,24.34
2018-08-23T16:28:34.047Z,24.38
2018-08-23T16:29:33.926Z,24.34
2018-08-23T16:31:26.715Z,24.29
2018-08-23T16:32:26.670Z,24.29
2018-08-23T16:34:19.508Z,24.37
2018-08-23T16:35:19.412Z,24.39
2018-08-23T16:37:12.204Z,24.44
2018-08-23T16:38:12.159Z,24.34
2018-08-23T16:40:05.003Z,24.32
2018-08-23T16:41:04.901Z,24.29
2018-08-23T16:42:57.694Z,24.31
2018-08-23T16:43:57.648Z,24.45
2018-08-23T16:45:50.468Z,24.37
2018-08-23T16:46:50.389Z,24.26
2018-08-23T16:48:43.179Z,24.35
2018-08-23T16:49:43.133Z,24.32
2018-08-23T16:51:35.954Z,24.45
2018-08-23T16:52:35.877Z,24.29
2018-08-23T16:54:28.669Z,24.37
2018-08-23T16:55:28.621Z,24.31
2018-08-23T16:57:21.440Z,24.38
2018-08-23T16:58:21.362Z,24.45
2018-08-23T17:00:14.152Z,24.38
2018-08-23T17:01:14.103Z,24.31
2018-08-23T17:03:06.936Z,24.37
2018-08-23T17:04:06.901Z,24.39
2018-08-23T17:05:59.633Z,24.41
2018-08-23T17:06:59.586Z,24.32
2018-08-23T17:08:52.409Z,24.38
2018-08-23T17:09:52.327Z,24.41
2018-08-23T17:11:45.119Z,24.38
2018-08-23T17:12:45.071Z,24.38
2018-08-23T17:14:37.899Z,24.41
2018-08-23T17:15:37.819Z,24.39
2018-08-23T17:17:30.612Z,24.39
2018-08-23T17:18:30.668Z,24.42
2018-08-23T17:20:23.399Z,24.41
2018-08-23T17:21:23.311Z,24.38
2018-08-23T17:23:16.388Z,24.41
2018-08-23T17:24:16.382Z,24.38
2018-08-23T17:26:09.115Z,24.38
2018-08-23T17:27:09.025Z,24.37
2018-08-23T17:29:01.821Z,24.39
2018-08-23T17:30:01.772Z,24.39
2018-08-23T17:31:54.598Z,24.37
2018-08-23T17:32:54.739Z,24.41
2018-08-23T17:34:47.307Z,24.42
2018-08-23T17:35:47.261Z,24.38
2018-08-23T17:37:40.094Z,24.38
2018-08-23T17:38:40.015Z,24.37
2018-08-23T17:40:32.802Z,24.37
2018-08-23T17:41:32.752Z,24.37
2018-08-23T17:43:25.575Z,24.37
2018-08-23T17:44:25.495Z,24.42
2018-08-23T17:46:18.288Z,24.41
2018-08-23T17:47:18.243Z,24.38
2018-08-23T17:49:11.061Z,24.44
2018-08-23T17:50:10.982Z,24.39
2018-08-23T17:52:03.772Z,24.39
2018-08-23T17:53:03.735Z,24.38
2018-08-23T17:54:56.559Z,24.45
2018-08-23T17:55:56.469Z,24.35
2018-08-23T17:57:49.260Z,24.42
2018-08-23T17:58:49.213Z,24.45
2018-08-23T18:00:42.034Z,24.38
2018-08-23T18:01:41.955Z,24.41
2018-08-23T18:03:34.750Z,24.42
2018-08-23T18:04:34.703Z,24.34
2018-08-23T18:06:27.549Z,24.42
2018-08-23T18:07:27.453Z,24.39
2018-08-23T18:09:20.242Z,24.39
2018-08-23T18:10:20.192Z,24.38
2018-08-23T18:12:13.015Z,24.35
2018-08-23T18:13:12.934Z,24.39
2018-08-23T18:15:05.724Z,24.42
2018-08-23T18:16:05.676Z,24.42
2018-08-23T18:17:58.515Z,24.38
2018-08-23T18:18:58.424Z,24.38
2018-08-23T18:20:51.215Z,24.39
2018-08-23T18:21:51.166Z,24.35
2018-08-23T18:23:44.049Z,24.41
2018-08-23T18:24:43.911Z,24.39
2018-08-23T18:26:36.703Z,24.37
2018-08-23T18:27:36.654Z,24.29
2018-08-23T18:29:29.932Z,24.38
2018-08-23T18:30:29.855Z,24.39
2018-08-23T18:32:22.756Z,24.39